sensor_id;sensor_type;location;lat;lon;timestamp;P1;durP1;ratioP1;P2;durP2;ratioP2
64061;SDS011;50308;47.438;-1.528;2023-04-01T00:01:39;15.15;;;3.35;;
64061;SDS011;50308;47.438;-1.528;2023-04-01T00:04:05;17.05;;;2.83;;
64061;SDS011;50308;47.438;-1.528;2023-04-01T00:06:31;13.68;;;3.08;;
64061;SDS011;50308;47.438;-1.528;2023-04-01T00:08:56;19.65;;;2.95;;
64061;SDS011;50308;47.438;-1.528;2023-04-01T00:11:22;11.90;;;2.75;;
64061;SDS011;50308;47.438;-1.528;2023-04-01T00:13:48;7.20;;;2.50;;
64061;SDS011;50308;47.438;-1.528;2023-04-01T00:16:14;10.68;;;2.38;;
64061;SDS011;50308;47.438;-1.528;2023-04-01T00:18:40;13.75;;;2.38;;
64061;SDS011;50308;47.438;-1.528;2023-04-01T00:21:06;11.00;;;3.60;;
64061;SDS011;50308;47.438;-1.528;2023-04-01T00:23:32;18.70;;;3.75;;
64061;SDS011;50308;47.438;-1.528;2023-04-01T00:25:59;17.73;;;3.20;;
64061;SDS011;50308;47.438;-1.528;2023-04-01T00:28:26;16.42;;;3.45;;
64061;SDS011;50308;47.438;-1.528;2023-04-01T00:30:52;16.13;;;4.05;;
64061;SDS011;50308;47.438;-1.528;2023-04-01T00:33:18;16.20;;;3.60;;
64061;SDS011;50308;47.438;-1.528;2023-04-01T00:35:44;16.15;;;2.92;;
64061;SDS011;50308;47.438;-1.528;2023-04-01T00:38:10;17.45;;;2.50;;
64061;SDS011;50308;47.438;-1.528;2023-04-01T00:40:43;19.48;;;3.50;;
64061;SDS011;50308;47.438;-1.528;2023-04-01T00:43:17;9.38;;;2.00;;
64061;SDS011;50308;47.438;-1.528;2023-04-01T00:45:45;13.40;;;2.40;;
64061;SDS011;50308;47.438;-1.528;2023-04-01T00:48:19;9.88;;;2.65;;
64061;SDS011;50308;47.438;-1.528;2023-04-01T00:50:57;10.25;;;2.15;;
64061;SDS011;50308;47.438;-1.528;2023-04-01T00:53:26;12.35;;;2.63;;
64061;SDS011;50308;47.438;-1.528;2023-04-01T00:56:03;12.45;;;1.90;;
64061;SDS011;50308;47.438;-1.528;2023-04-01T00:58:35;6.88;;;2.33;;
64061;SDS011;50308;47.438;-1.528;2023-04-01T01:01:04;9.32;;;2.65;;
64061;SDS011;50308;47.438;-1.528;2023-04-01T01:03:33;9.48;;;1.70;;
64061;SDS011;50308;47.438;-1.528;2023-04-01T01:16:54;11.80;;;2.17;;
64061;SDS011;50308;47.438;-1.528;2023-04-01T01:19:42;14.35;;;2.80;;
64061;SDS011;50308;47.438;-1.528;2023-04-01T01:27:46;7.15;;;2.10;;
64061;SDS011;50308;47.438;-1.528;2023-04-01T01:30:48;14.52;;;2.58;;
64061;SDS011;50308;47.438;-1.528;2023-04-01T01:36:09;13.10;;;2.92;;
64061;SDS011;50308;47.438;-1.528;2023-04-01T01:38:38;8.57;;;2.13;;
64061;SDS011;50308;47.438;-1.528;2023-04-01T01:41:05;13.63;;;3.05;;
64061;SDS011;50308;47.438;-1.528;2023-04-01T01:43:33;21.02;;;4.63;;
64061;SDS011;50308;47.438;-1.528;2023-04-01T01:46:10;16.33;;;3.42;;
64061;SDS011;50308;47.438;-1.528;2023-04-01T01:48:39;13.32;;;2.50;;
64061;SDS011;50308;47.438;-1.528;2023-04-01T01:51:07;11.25;;;2.47;;
64061;SDS011;50308;47.438;-1.528;2023-04-01T01:53:33;12.38;;;2.38;;
64061;SDS011;50308;47.438;-1.528;2023-04-01T01:55:59;12.95;;;2.40;;
64061;SDS011;50308;47.438;-1.528;2023-04-01T01:58:35;17.17;;;2.33;;
64061;SDS011;50308;47.438;-1.528;2023-04-01T02:01:17;9.85;;;4.10;;
64061;SDS011;50308;47.438;-1.528;2023-04-01T02:03:47;15.43;;;2.17;;
64061;SDS011;50308;47.438;-1.528;2023-04-01T02:06:15;13.48;;;2.65;;
64061;SDS011;50308;47.438;-1.528;2023-04-01T02:08:45;13.98;;;2.40;;
64061;SDS011;50308;47.438;-1.528;2023-04-01T02:11:18;13.75;;;3.30;;
64061;SDS011;50308;47.438;-1.528;2023-04-01T02:16:26;12.35;;;2.50;;
64061;SDS011;50308;47.438;-1.528;2023-04-01T02:18:54;16.98;;;2.92;;
64061;SDS011;50308;47.438;-1.528;2023-04-01T02:21:23;15.50;;;3.38;;
64061;SDS011;50308;47.438;-1.528;2023-04-01T02:23:52;11.15;;;2.60;;
64061;SDS011;50308;47.438;-1.528;2023-04-01T02:26:19;21.23;;;4.30;;
64061;SDS011;50308;47.438;-1.528;2023-04-01T02:28:47;8.50;;;2.33;;
64061;SDS011;50308;47.438;-1.528;2023-04-01T02:31:14;16.25;;;2.72;;
64061;SDS011;50308;47.438;-1.528;2023-04-01T02:33:40;8.80;;;2.47;;
64061;SDS011;50308;47.438;-1.528;2023-04-01T02:36:10;17.00;;;3.47;;
64061;SDS011;50308;47.438;-1.528;2023-04-01T02:41:03;12.20;;;2.42;;
64061;SDS011;50308;47.438;-1.528;2023-04-01T02:43:31;21.58;;;3.33;;
64061;SDS011;50308;47.438;-1.528;2023-04-01T02:45:56;17.23;;;3.10;;
64061;SDS011;50308;47.438;-1.528;2023-04-01T02:48:22;11.23;;;2.25;;
64061;SDS011;50308;47.438;-1.528;2023-04-01T02:50:48;19.75;;;3.10;;
64061;SDS011;50308;47.438;-1.528;2023-04-01T02:53:14;17.10;;;2.22;;
64061;SDS011;50308;47.438;-1.528;2023-04-01T02:55:40;18.73;;;3.10;;
64061;SDS011;50308;47.438;-1.528;2023-04-01T02:58:06;16.67;;;2.72;;
64061;SDS011;50308;47.438;-1.528;2023-04-01T03:00:32;14.73;;;2.47;;
64061;SDS011;50308;47.438;-1.528;2023-04-01T03:02:58;11.18;;;2.67;;
64061;SDS011;50308;47.438;-1.528;2023-04-01T03:05:24;16.25;;;2.92;;
64061;SDS011;50308;47.438;-1.528;2023-04-01T03:07:50;15.18;;;2.72;;
64061;SDS011;50308;47.438;-1.528;2023-04-01T03:10:16;16.27;;;4.40;;
64061;SDS011;50308;47.438;-1.528;2023-04-01T03:12:42;13.93;;;3.10;;
64061;SDS011;50308;47.438;-1.528;2023-04-01T03:15:09;8.77;;;2.15;;
64061;SDS011;50308;47.438;-1.528;2023-04-01T03:17:37;11.30;;;2.33;;
64061;SDS011;50308;47.438;-1.528;2023-04-01T03:20:03;11.13;;;3.25;;
64061;SDS011;50308;47.438;-1.528;2023-04-01T03:22:30;10.70;;;2.35;;
64061;SDS011;50308;47.438;-1.528;2023-04-01T03:24:56;15.52;;;2.33;;
64061;SDS011;50308;47.438;-1.528;2023-04-01T03:27:21;12.77;;;2.20;;
64061;SDS011;50308;47.438;-1.528;2023-04-01T03:29:48;11.55;;;2.45;;
64061;SDS011;50308;47.438;-1.528;2023-04-01T03:32:13;14.40;;;2.22;;
64061;SDS011;50308;47.438;-1.528;2023-04-01T03:34:39;18.50;;;3.22;;
64061;SDS011;50308;47.438;-1.528;2023-04-01T03:37:05;11.23;;;2.05;;
64061;SDS011;50308;47.438;-1.528;2023-04-01T03:39:31;8.93;;;2.50;;
64061;SDS011;50308;47.438;-1.528;2023-04-01T03:41:57;12.02;;;2.72;;
64061;SDS011;50308;47.438;-1.528;2023-04-01T03:44:22;13.18;;;2.75;;
64061;SDS011;50308;47.438;-1.528;2023-04-01T03:46:48;13.48;;;1.70;;
64061;SDS011;50308;47.438;-1.528;2023-04-01T03:49:14;7.18;;;1.77;;
64061;SDS011;50308;47.438;-1.528;2023-04-01T03:51:41;8.70;;;1.60;;
64061;SDS011;50308;47.438;-1.528;2023-04-01T03:54:08;11.13;;;2.17;;
64061;SDS011;50308;47.438;-1.528;2023-04-01T03:56:35;16.15;;;2.35;;
64061;SDS011;50308;47.438;-1.528;2023-04-01T03:59:02;14.43;;;2.72;;
64061;SDS011;50308;47.438;-1.528;2023-04-01T04:01:29;10.05;;;1.98;;
64061;SDS011;50308;47.438;-1.528;2023-04-01T04:03:55;12.20;;;2.33;;
64061;SDS011;50308;47.438;-1.528;2023-04-01T04:06:22;6.47;;;1.80;;
64061;SDS011;50308;47.438;-1.528;2023-04-01T04:08:49;11.82;;;2.60;;
64061;SDS011;50308;47.438;-1.528;2023-04-01T04:11:15;7.90;;;2.03;;
64061;SDS011;50308;47.438;-1.528;2023-04-01T04:13:42;16.35;;;2.40;;
64061;SDS011;50308;47.438;-1.528;2023-04-01T04:16:08;9.55;;;1.95;;
64061;SDS011;50308;47.438;-1.528;2023-04-01T04:18:35;9.50;;;2.08;;
64061;SDS011;50308;47.438;-1.528;2023-04-01T04:21:01;9.32;;;2.03;;
64061;SDS011;50308;47.438;-1.528;2023-04-01T04:23:27;8.75;;;2.20;;
64061;SDS011;50308;47.438;-1.528;2023-04-01T04:26:02;11.52;;;2.33;;
64061;SDS011;50308;47.438;-1.528;2023-04-01T04:28:30;16.42;;;3.33;;
64061;SDS011;50308;47.438;-1.528;2023-04-01T04:30:56;13.18;;;3.03;;
64061;SDS011;50308;47.438;-1.528;2023-04-01T04:33:23;14.38;;;2.60;;
64061;SDS011;50308;47.438;-1.528;2023-04-01T04:35:49;9.30;;;2.42;;
64061;SDS011;50308;47.438;-1.528;2023-04-01T04:38:16;17.08;;;2.80;;
64061;SDS011;50308;47.438;-1.528;2023-04-01T04:40:42;12.77;;;2.42;;
64061;SDS011;50308;47.438;-1.528;2023-04-01T04:43:11;10.43;;;2.40;;
64061;SDS011;50308;47.438;-1.528;2023-04-01T04:45:38;8.55;;;2.28;;
64061;SDS011;50308;47.438;-1.528;2023-04-01T04:48:04;4.90;;;1.40;;
64061;SDS011;50308;47.438;-1.528;2023-04-01T04:50:32;10.65;;;2.17;;
64061;SDS011;50308;47.438;-1.528;2023-04-01T04:52:58;12.82;;;2.20;;
64061;SDS011;50308;47.438;-1.528;2023-04-01T04:55:23;10.45;;;2.15;;
64061;SDS011;50308;47.438;-1.528;2023-04-01T04:57:49;10.88;;;2.97;;
64061;SDS011;50308;47.438;-1.528;2023-04-01T05:00:15;11.65;;;2.25;;
64061;SDS011;50308;47.438;-1.528;2023-04-01T05:02:41;14.95;;;2.70;;
64061;SDS011;50308;47.438;-1.528;2023-04-01T05:05:06;7.68;;;2.50;;
64061;SDS011;50308;47.438;-1.528;2023-04-01T05:07:33;12.25;;;2.45;;
64061;SDS011;50308;47.438;-1.528;2023-04-01T05:09:59;12.45;;;2.35;;
64061;SDS011;50308;47.438;-1.528;2023-04-01T05:12:25;11.10;;;1.75;;
64061;SDS011;50308;47.438;-1.528;2023-04-01T05:14:50;8.82;;;1.77;;
64061;SDS011;50308;47.438;-1.528;2023-04-01T05:17:16;12.55;;;2.60;;
64061;SDS011;50308;47.438;-1.528;2023-04-01T05:19:42;12.45;;;2.22;;
64061;SDS011;50308;47.438;-1.528;2023-04-01T05:22:07;16.05;;;3.40;;
64061;SDS011;50308;47.438;-1.528;2023-04-01T05:24:33;10.20;;;2.53;;
64061;SDS011;50308;47.438;-1.528;2023-04-01T05:26:59;12.07;;;3.13;;
64061;SDS011;50308;47.438;-1.528;2023-04-01T05:29:25;8.73;;;2.13;;
64061;SDS011;50308;47.438;-1.528;2023-04-01T05:31:51;13.50;;;3.25;;
64061;SDS011;50308;47.438;-1.528;2023-04-01T05:34:17;22.92;;;4.45;;
64061;SDS011;50308;47.438;-1.528;2023-04-01T05:36:43;16.55;;;3.60;;
64061;SDS011;50308;47.438;-1.528;2023-04-01T05:39:09;14.05;;;4.57;;
64061;SDS011;50308;47.438;-1.528;2023-04-01T05:41:35;25.35;;;5.55;;
64061;SDS011;50308;47.438;-1.528;2023-04-01T05:44:01;20.23;;;5.38;;
64061;SDS011;50308;47.438;-1.528;2023-04-01T05:46:27;25.67;;;5.50;;
64061;SDS011;50308;47.438;-1.528;2023-04-01T05:48:53;23.17;;;6.45;;
64061;SDS011;50308;47.438;-1.528;2023-04-01T05:51:19;22.27;;;5.35;;
64061;SDS011;50308;47.438;-1.528;2023-04-01T05:53:45;34.20;;;10.10;;
64061;SDS011;50308;47.438;-1.528;2023-04-01T05:56:11;46.83;;;13.55;;
64061;SDS011;50308;47.438;-1.528;2023-04-01T05:58:37;32.38;;;9.45;;
64061;SDS011;50308;47.438;-1.528;2023-04-01T06:01:03;38.83;;;13.07;;
64061;SDS011;50308;47.438;-1.528;2023-04-01T06:03:33;27.20;;;8.60;;
64061;SDS011;50308;47.438;-1.528;2023-04-01T06:05:59;25.15;;;7.65;;
64061;SDS011;50308;47.438;-1.528;2023-04-01T06:08:26;21.15;;;5.60;;
64061;SDS011;50308;47.438;-1.528;2023-04-01T06:19:44;11.23;;;3.28;;
64061;SDS011;50308;47.438;-1.528;2023-04-01T06:22:51;12.50;;;3.17;;
64061;SDS011;50308;47.438;-1.528;2023-04-01T06:25:37;27.65;;;8.05;;
64061;SDS011;50308;47.438;-1.528;2023-04-01T06:28:23;17.85;;;4.28;;
64061;SDS011;50308;47.438;-1.528;2023-04-01T06:37:10;35.90;;;10.32;;
64061;SDS011;50308;47.438;-1.528;2023-04-01T06:55:44;70.85;;;19.63;;
64061;SDS011;50308;47.438;-1.528;2023-04-01T06:58:20;66.32;;;16.92;;
64061;SDS011;50308;47.438;-1.528;2023-04-01T07:01:01;35.70;;;12.10;;
64061;SDS011;50308;47.438;-1.528;2023-04-01T07:03:35;33.47;;;10.02;;
64061;SDS011;50308;47.438;-1.528;2023-04-01T07:06:12;32.08;;;8.05;;
64061;SDS011;50308;47.438;-1.528;2023-04-01T07:08:47;28.98;;;11.32;;
64061;SDS011;50308;47.438;-1.528;2023-04-01T07:11:22;26.02;;;7.05;;
64061;SDS011;50308;47.438;-1.528;2023-04-01T07:13:55;25.40;;;5.65;;
64061;SDS011;50308;47.438;-1.528;2023-04-01T07:16:48;19.15;;;6.40;;
64061;SDS011;50308;47.438;-1.528;2023-04-01T07:19:36;23.60;;;5.82;;
64061;SDS011;50308;47.438;-1.528;2023-04-01T07:25:01;28.85;;;5.82;;
64061;SDS011;50308;47.438;-1.528;2023-04-01T07:27:30;19.63;;;4.53;;
64061;SDS011;50308;47.438;-1.528;2023-04-01T07:29:56;18.40;;;5.75;;
64061;SDS011;50308;47.438;-1.528;2023-04-01T07:32:34;25.13;;;7.82;;
64061;SDS011;50308;47.438;-1.528;2023-04-01T07:43:22;20.80;;;4.65;;
64061;SDS011;50308;47.438;-1.528;2023-04-01T07:46:07;14.80;;;2.83;;
64061;SDS011;50308;47.438;-1.528;2023-04-01T07:48:50;16.67;;;3.40;;
64061;SDS011;50308;47.438;-1.528;2023-04-01T07:51:46;15.02;;;2.80;;
64061;SDS011;50308;47.438;-1.528;2023-04-01T07:54:19;12.02;;;2.47;;
64061;SDS011;50308;47.438;-1.528;2023-04-01T08:13:10;14.23;;;2.55;;
64061;SDS011;50308;47.438;-1.528;2023-04-01T08:15:46;11.45;;;2.72;;
64061;SDS011;50308;47.438;-1.528;2023-04-01T08:23:58;7.57;;;2.38;;
64061;SDS011;50308;47.438;-1.528;2023-04-01T08:26:37;9.05;;;2.40;;
64061;SDS011;50308;47.438;-1.528;2023-04-01T08:34:58;6.18;;;2.33;;
64061;SDS011;50308;47.438;-1.528;2023-04-01T08:37:26;8.87;;;2.00;;
64061;SDS011;50308;47.438;-1.528;2023-04-01T08:39:58;59.45;;;7.95;;
64061;SDS011;50308;47.438;-1.528;2023-04-01T09:01:21;8.10;;;2.03;;
64061;SDS011;50308;47.438;-1.528;2023-04-01T09:25:38;6.60;;;1.90;;
64061;SDS011;50308;47.438;-1.528;2023-04-01T09:28:37;8.60;;;2.10;;
64061;SDS011;50308;47.438;-1.528;2023-04-01T10:02:13;5.32;;;1.38;;
64061;SDS011;50308;47.438;-1.528;2023-04-01T10:10:22;11.05;;;2.05;;
64061;SDS011;50308;47.438;-1.528;2023-04-01T10:18:55;11.98;;;2.10;;
64061;SDS011;50308;47.438;-1.528;2023-04-01T10:38:47;8.30;;;2.67;;
64061;SDS011;50308;47.438;-1.528;2023-04-01T10:46:56;7.78;;;2.80;;
64061;SDS011;50308;47.438;-1.528;2023-04-01T10:49:41;6.15;;;2.17;;
64061;SDS011;50308;47.438;-1.528;2023-04-01T11:03:46;26.88;;;8.55;;
64061;SDS011;50308;47.438;-1.528;2023-04-01T11:12:09;40.95;;;14.48;;
64061;SDS011;50308;47.438;-1.528;2023-04-01T11:24:08;25.90;;;8.10;;
64061;SDS011;50308;47.438;-1.528;2023-04-01T11:45:31;7.97;;;2.47;;
64061;SDS011;50308;47.438;-1.528;2023-04-01T11:56:13;10.07;;;1.90;;
64061;SDS011;50308;47.438;-1.528;2023-04-01T11:59:22;5.53;;;1.10;;
64061;SDS011;50308;47.438;-1.528;2023-04-01T12:04:54;3.67;;;1.00;;
64061;SDS011;50308;47.438;-1.528;2023-04-01T12:07:39;6.32;;;2.30;;
64061;SDS011;50308;47.438;-1.528;2023-04-01T12:10:37;6.35;;;2.70;;
64061;SDS011;50308;47.438;-1.528;2023-04-01T12:13:19;6.32;;;1.73;;
64061;SDS011;50308;47.438;-1.528;2023-04-01T12:18:52;2.65;;;1.40;;
64061;SDS011;50308;47.438;-1.528;2023-04-01T12:21:37;12.25;;;5.13;;
64061;SDS011;50308;47.438;-1.528;2023-04-01T12:27:01;9.02;;;3.08;;
64061;SDS011;50308;47.438;-1.528;2023-04-01T12:46:16;7.68;;;1.95;;
64061;SDS011;50308;47.438;-1.528;2023-04-01T13:11:30;5.53;;;1.73;;
64061;SDS011;50308;47.438;-1.528;2023-04-01T13:14:11;7.25;;;1.35;;
64061;SDS011;50308;47.438;-1.528;2023-04-01T13:16:51;5.22;;;1.55;;
64061;SDS011;50308;47.438;-1.528;2023-04-01T13:19:31;6.22;;;2.22;;
64061;SDS011;50308;47.438;-1.528;2023-04-01T13:29:57;8.07;;;2.90;;
64061;SDS011;50308;47.438;-1.528;2023-04-01T13:35:54;9.68;;;1.70;;
64061;SDS011;50308;47.438;-1.528;2023-04-01T13:43:28;7.60;;;1.58;;
64061;SDS011;50308;47.438;-1.528;2023-04-01T14:21:35;4.60;;;1.48;;
64061;SDS011;50308;47.438;-1.528;2023-04-01T14:30:26;9.40;;;1.80;;
64061;SDS011;50308;47.438;-1.528;2023-04-01T14:33:18;6.15;;;1.27;;
64061;SDS011;50308;47.438;-1.528;2023-04-01T14:49:48;5.90;;;1.25;;
64061;SDS011;50308;47.438;-1.528;2023-04-01T14:52:32;5.57;;;1.27;;
64061;SDS011;50308;47.438;-1.528;2023-04-01T14:55:02;7.72;;;2.85;;
64061;SDS011;50308;47.438;-1.528;2023-04-01T14:58:13;3.92;;;1.45;;
64061;SDS011;50308;47.438;-1.528;2023-04-01T15:03:26;4.18;;;1.40;;
64061;SDS011;50308;47.438;-1.528;2023-04-01T15:06:01;4.03;;;0.80;;
64061;SDS011;50308;47.438;-1.528;2023-04-01T15:08:58;3.55;;;0.82;;
64061;SDS011;50308;47.438;-1.528;2023-04-01T15:27:48;5.65;;;1.50;;
64061;SDS011;50308;47.438;-1.528;2023-04-01T15:30:32;6.25;;;1.15;;
64061;SDS011;50308;47.438;-1.528;2023-04-01T15:36:05;3.45;;;1.55;;
64061;SDS011;50308;47.438;-1.528;2023-04-01T15:38:48;3.25;;;1.40;;
64061;SDS011;50308;47.438;-1.528;2023-04-01T15:44:02;4.15;;;1.05;;
64061;SDS011;50308;47.438;-1.528;2023-04-01T15:46:46;5.25;;;1.17;;
64061;SDS011;50308;47.438;-1.528;2023-04-01T15:52:19;3.80;;;1.40;;
64061;SDS011;50308;47.438;-1.528;2023-04-01T16:00:25;2.22;;;0.90;;
64061;SDS011;50308;47.438;-1.528;2023-04-01T16:11:08;2.05;;;1.08;;
64061;SDS011;50308;47.438;-1.528;2023-04-01T16:13:48;7.22;;;1.45;;
64061;SDS011;50308;47.438;-1.528;2023-04-01T16:22:26;4.85;;;1.90;;
64061;SDS011;50308;47.438;-1.528;2023-04-01T16:31:06;5.53;;;2.30;;
64061;SDS011;50308;47.438;-1.528;2023-04-01T16:33:55;4.15;;;1.63;;
64061;SDS011;50308;47.438;-1.528;2023-04-01T16:44:21;7.40;;;3.08;;
64061;SDS011;50308;47.438;-1.528;2023-04-01T16:46:50;4.30;;;1.65;;
64061;SDS011;50308;47.438;-1.528;2023-04-01T16:49:36;5.35;;;1.65;;
64061;SDS011;50308;47.438;-1.528;2023-04-01T16:55:19;6.07;;;1.50;;
64061;SDS011;50308;47.438;-1.528;2023-04-01T16:57:48;9.15;;;2.13;;
64061;SDS011;50308;47.438;-1.528;2023-04-01T17:00:22;7.15;;;1.50;;
64061;SDS011;50308;47.438;-1.528;2023-04-01T17:02:57;12.90;;;2.38;;
64061;SDS011;50308;47.438;-1.528;2023-04-01T17:11:21;8.98;;;2.35;;
64061;SDS011;50308;47.438;-1.528;2023-04-01T17:25:35;11.52;;;2.83;;
64061;SDS011;50308;47.438;-1.528;2023-04-01T17:33:29;10.18;;;3.47;;
64061;SDS011;50308;47.438;-1.528;2023-04-01T17:44:31;9.50;;;3.30;;
64061;SDS011;50308;47.438;-1.528;2023-04-01T17:47:13;13.07;;;3.45;;
64061;SDS011;50308;47.438;-1.528;2023-04-01T17:50:02;16.58;;;3.97;;
64061;SDS011;50308;47.438;-1.528;2023-04-01T17:52:43;13.90;;;3.45;;
64061;SDS011;50308;47.438;-1.528;2023-04-01T18:19:42;29.45;;;9.80;;
64061;SDS011;50308;47.438;-1.528;2023-04-01T18:22:21;34.95;;;10.98;;
64061;SDS011;50308;47.438;-1.528;2023-04-01T18:25:05;82.18;;;26.63;;
64061;SDS011;50308;47.438;-1.528;2023-04-01T18:30:42;33.72;;;9.75;;
64061;SDS011;50308;47.438;-1.528;2023-04-01T18:33:21;38.40;;;11.63;;
64061;SDS011;50308;47.438;-1.528;2023-04-01T18:36:03;25.98;;;8.68;;
64061;SDS011;50308;47.438;-1.528;2023-04-01T18:38:36;22.08;;;7.60;;
64061;SDS011;50308;47.438;-1.528;2023-04-01T18:41:13;24.02;;;7.18;;
64061;SDS011;50308;47.438;-1.528;2023-04-01T18:48:56;16.33;;;6.10;;
64061;SDS011;50308;47.438;-1.528;2023-04-01T18:51:41;17.13;;;6.70;;
64061;SDS011;50308;47.438;-1.528;2023-04-01T18:57:13;17.65;;;5.63;;
64061;SDS011;50308;47.438;-1.528;2023-04-01T19:05:14;18.00;;;4.80;;
64061;SDS011;50308;47.438;-1.528;2023-04-01T19:12:59;7.55;;;3.45;;
64061;SDS011;50308;47.438;-1.528;2023-04-01T19:15:51;11.43;;;2.42;;
64061;SDS011;50308;47.438;-1.528;2023-04-01T19:18:47;4.00;;;1.85;;
64061;SDS011;50308;47.438;-1.528;2023-04-01T19:24:04;4.18;;;1.33;;
64061;SDS011;50308;47.438;-1.528;2023-04-01T19:27:26;2.97;;;1.00;;
64061;SDS011;50308;47.438;-1.528;2023-04-01T19:38:41;3.13;;;1.20;;
64061;SDS011;50308;47.438;-1.528;2023-04-01T19:46:45;4.00;;;0.95;;
64061;SDS011;50308;47.438;-1.528;2023-04-01T19:54:38;6.68;;;2.80;;
64061;SDS011;50308;47.438;-1.528;2023-04-01T19:59:51;14.27;;;6.35;;
64061;SDS011;50308;47.438;-1.528;2023-04-01T20:08:40;8.13;;;3.15;;
64061;SDS011;50308;47.438;-1.528;2023-04-01T20:10:56;4.57;;;2.30;;
64061;SDS011;50308;47.438;-1.528;2023-04-01T20:13:42;9.63;;;2.92;;
64061;SDS011;50308;47.438;-1.528;2023-04-01T20:16:11;3.80;;;2.60;;
64061;SDS011;50308;47.438;-1.528;2023-04-01T20:18:57;4.18;;;2.20;;
64061;SDS011;50308;47.438;-1.528;2023-04-01T20:21:43;3.72;;;2.08;;
64061;SDS011;50308;47.438;-1.528;2023-04-01T20:24:17;4.65;;;2.95;;
64061;SDS011;50308;47.438;-1.528;2023-04-01T20:26:53;6.72;;;2.75;;
64061;SDS011;50308;47.438;-1.528;2023-04-01T20:35:00;3.95;;;3.00;;
64061;SDS011;50308;47.438;-1.528;2023-04-01T20:40:49;6.00;;;3.13;;
64061;SDS011;50308;47.438;-1.528;2023-04-01T20:48:39;5.20;;;2.50;;
64061;SDS011;50308;47.438;-1.528;2023-04-01T21:07:47;9.20;;;4.88;;
64061;SDS011;50308;47.438;-1.528;2023-04-01T21:10:36;7.18;;;4.20;;
64061;SDS011;50308;47.438;-1.528;2023-04-01T21:27:07;3.40;;;1.90;;
64061;SDS011;50308;47.438;-1.528;2023-04-01T21:47:04;3.08;;;2.10;;
64061;SDS011;50308;47.438;-1.528;2023-04-01T21:49:56;2.72;;;2.00;;
64061;SDS011;50308;47.438;-1.528;2023-04-01T21:55:59;4.57;;;2.10;;
64061;SDS011;50308;47.438;-1.528;2023-04-01T22:06:56;4.72;;;1.60;;
64061;SDS011;50308;47.438;-1.528;2023-04-01T22:17:38;4.55;;;2.65;;
64061;SDS011;50308;47.438;-1.528;2023-04-01T22:23:12;2.80;;;1.80;;
64061;SDS011;50308;47.438;-1.528;2023-04-01T22:25:56;6.07;;;3.83;;
64061;SDS011;50308;47.438;-1.528;2023-04-01T22:31:11;16.38;;;9.38;;
64061;SDS011;50308;47.438;-1.528;2023-04-01T22:34:06;9.30;;;5.38;;
64061;SDS011;50308;47.438;-1.528;2023-04-01T22:41:48;7.90;;;4.75;;
64061;SDS011;50308;47.438;-1.528;2023-04-01T22:54:48;5.55;;;2.38;;
64061;SDS011;50308;47.438;-1.528;2023-04-01T23:02:48;3.83;;;1.90;;
64061;SDS011;50308;47.438;-1.528;2023-04-01T23:05:29;4.82;;;1.83;;
64061;SDS011;50308;47.438;-1.528;2023-04-01T23:10:51;5.57;;;1.95;;
64061;SDS011;50308;47.438;-1.528;2023-04-01T23:13:34;4.55;;;1.70;;
64061;SDS011;50308;47.438;-1.528;2023-04-01T23:16:06;3.60;;;1.65;;
64061;SDS011;50308;47.438;-1.528;2023-04-01T23:21:13;3.63;;;1.45;;
64061;SDS011;50308;47.438;-1.528;2023-04-01T23:24:03;3.83;;;1.10;;
64061;SDS011;50308;47.438;-1.528;2023-04-01T23:28:58;3.65;;;1.48;;
64061;SDS011;50308;47.438;-1.528;2023-04-01T23:33:54;3.95;;;1.40;;
64061;SDS011;50308;47.438;-1.528;2023-04-01T23:36:21;2.13;;;1.00;;
64061;SDS011;50308;47.438;-1.528;2023-04-01T23:38:47;3.30;;;1.10;;
64061;SDS011;50308;47.438;-1.528;2023-04-01T23:41:32;3.55;;;1.42;;
64061;SDS011;50308;47.438;-1.528;2023-04-01T23:44:00;4.35;;;1.15;;
64061;SDS011;50308;47.438;-1.528;2023-04-01T23:46:29;2.53;;;1.55;;
64061;SDS011;50308;47.438;-1.528;2023-04-01T23:48:56;4.28;;;1.20;;
64061;SDS011;50308;47.438;-1.528;2023-04-01T23:51:23;2.28;;;1.10;;
64061;SDS011;50308;47.438;-1.528;2023-04-01T23:56:51;6.95;;;1.63;;
64061;SDS011;50308;47.438;-1.528;2023-04-01T23:59:22;3.10;;;1.42;;
